Time;durP1;ratioP1;P1;durP2;ratioP2;P2;SDS_P1;SDS_P2;PMS_P1;PMS_P2;Temp;Humidity;BMP_temperature;BMP_pressure;BME280_temperature;BME280_humidity;BME280_pressure;Samples;Min_cycle;Max_cycle;Signal;HPM_P1;HPM_P2
2022/01/13 00:00:27;;;;;;;32.40;19.30;;;-3.70;99.90;;;;;;5049336;28;20187;-77
2022/01/13 00:02:53;;;;;;;36.70;20.47;;;-3.70;99.90;;;;;;5049267;28;20425;-77
2022/01/13 00:05:26;;;;;;;36.27;20.27;;;-3.80;99.90;;;;;;5031392;28;20204;-77
2022/01/13 00:07:55;;;;;;;34.45;20.50;;;-3.80;99.90;;;;;;5031251;28;20233;-77
2022/01/13 00:10:21;;;;;;;34.58;17.90;;;-3.80;99.90;;;;;;5015257;28;20187;-76
2022/01/13 00:12:47;;;;;;;32.17;18.70;;;-3.80;99.90;;;;;;5048900;28;20270;-77
2022/01/13 00:18:09;;;;;;;35.88;19.35;;;-3.80;99.90;;;;;;5032757;28;20477;-77
2022/01/13 00:26:01;;;;;;;37.28;19.33;;;-3.90;99.90;;;;;;5049663;28;20241;-77
2022/01/13 00:28:26;;;;;;;35.45;20.48;;;-3.90;99.90;;;;;;5049039;28;20290;-77
2022/01/13 00:30:55;;;;;;;38.37;22.17;;;-4.00;99.90;;;;;;5049048;28;21017;-77
2022/01/13 00:33:24;;;;;;;39.70;20.42;;;-4.10;99.90;;;;;;5030637;28;20191;-77
2022/01/13 00:35:52;;;;;;;37.38;21.63;;;-4.10;99.90;;;;;;5048658;28;20183;-76
2022/01/13 00:38:18;;;;;;;37.55;20.10;;;-4.00;99.90;;;;;;5048313;28;20207;-76
2022/01/13 00:40:44;;;;;;;39.30;19.90;;;-4.00;99.90;;;;;;5030584;28;20175;-77
2022/01/13 00:43:09;;;;;;;42.00;21.63;;;-4.00;99.90;;;;;;5048408;28;20176;-77
2022/01/13 00:45:35;;;;;;;36.00;20.83;;;-3.90;99.90;;;;;;5048819;28;20418;-77
2022/01/13 00:48:00;;;;;;;40.80;21.30;;;-3.90;99.90;;;;;;5030821;28;20990;-77
2022/01/13 00:50:26;;;;;;;37.23;20.60;;;-4.00;99.90;;;;;;5049390;28;20200;-77
2022/01/13 00:52:52;;;;;;;38.13;20.60;;;-4.00;99.90;;;;;;5030612;28;20579;-76
2022/01/13 00:55:21;;;;;;;37.70;20.37;;;-4.00;99.90;;;;;;5048414;28;20253;-76
2022/01/13 00:57:47;;;;;;;36.72;21.13;;;-4.00;99.90;;;;;;5048281;28;20322;-76
2022/01/13 01:00:15;;;;;;;34.08;20.13;;;-4.00;99.90;;;;;;5048239;28;20187;-76
2022/01/13 01:02:40;;;;;;;37.40;19.70;;;-4.00;99.90;;;;;;5048313;28;20173;-76
2022/01/13 01:05:06;;;;;;;40.63;21.13;;;-4.00;99.90;;;;;;5048562;28;20242;-75
2022/01/13 01:07:32;;;;;;;36.95;20.55;;;-4.00;99.90;;;;;;5030547;28;20200;-75
2022/01/13 01:10:01;;;;;;;34.70;19.70;;;-4.00;99.90;;;;;;5030482;28;20187;-76
2022/01/13 01:12:27;;;;;;;42.53;20.42;;;-4.00;99.90;;;;;;5031074;28;20180;-76
2022/01/13 01:14:57;;;;;;;39.00;21.00;;;-4.00;99.90;;;;;;5030525;28;20279;-77
2022/01/13 01:17:22;;;;;;;33.95;20.45;;;-4.00;99.90;;;;;;5048841;28;20478;-76
2022/01/13 01:19:50;;;;;;;37.00;21.03;;;-3.90;99.90;;;;;;5048831;28;20190;-76
2022/01/13 01:27:25;;;;;;;36.15;19.63;;;-3.90;99.90;;;;;;5049404;28;20180;-77
2022/01/13 01:29:56;;;;;;;34.03;19.77;;;-4.00;99.90;;;;;;5031329;28;20191;-77
2022/01/13 01:32:22;;;;;;;39.88;18.27;;;-4.00;99.90;;;;;;5032133;28;20188;-77
2022/01/13 01:37:15;;;;;;;36.80;20.03;;;-4.10;99.90;;;;;;5030763;28;20277;-76
2022/01/13 01:39:42;;;;;;;34.95;20.60;;;-4.10;99.90;;;;;;5031022;28;20176;-76
2022/01/13 01:42:08;;;;;;;34.55;19.40;;;-4.10;99.90;;;;;;5014333;28;20183;-76
2022/01/13 01:44:38;;;;;;;35.22;20.90;;;-4.00;99.90;;;;;;5048114;28;20704;-76
2022/01/13 01:47:05;;;;;;;37.83;20.10;;;-4.10;99.90;;;;;;5031114;28;20195;-76
2022/01/13 01:49:38;;;;;;;35.75;20.42;;;-4.10;99.90;;;;;;5030358;28;20186;-76
2022/01/13 01:52:04;;;;;;;38.10;20.33;;;-4.10;99.90;;;;;;5030562;28;20271;-76
2022/01/13 01:54:30;;;;;;;35.03;20.60;;;-4.10;99.90;;;;;;5030382;28;20588;-76
2022/01/13 01:56:56;;;;;;;40.63;21.50;;;-4.00;99.90;;;;;;5048415;28;20259;-76
2022/01/13 01:59:27;;;;;;;42.58;21.10;;;-4.00;99.90;;;;;;5049468;28;20851;-75
2022/01/13 02:01:53;;;;;;;36.33;21.95;;;-4.00;99.90;;;;;;5051970;28;20183;-75
2022/01/13 02:04:20;;;;;;;39.87;21.00;;;-4.10;99.90;;;;;;5033733;28;20204;-75
2022/01/13 02:06:46;;;;;;;35.20;20.23;;;-4.00;99.90;;;;;;5051794;28;20279;-76
2022/01/13 02:09:16;;;;;;;31.17;19.67;;;-4.00;99.90;;;;;;5051697;28;20396;-76
2022/01/13 02:11:46;;;;;;;32.92;19.70;;;-4.10;99.90;;;;;;5033495;28;20430;-76
2022/01/13 02:17:13;;;;;;;49.67;25.45;;;-4.20;99.90;;;;;;5050929;28;20222;-76
2022/01/13 02:19:41;;;;;;;42.15;21.65;;;-4.20;99.90;;;;;;5050952;28;20179;-77
2022/01/13 02:22:07;;;;;;;36.67;19.23;;;-4.20;99.90;;;;;;5033157;28;20219;-77
2022/01/13 02:24:34;;;;;;;30.67;18.15;;;-4.30;99.90;;;;;;5051006;28;20303;-77
2022/01/13 02:27:00;;;;;;;33.80;20.50;;;-4.30;99.90;;;;;;5016599;28;20179;-77
2022/01/13 02:29:26;;;;;;;38.80;21.45;;;-4.30;99.90;;;;;;5050718;28;20180;-77
2022/01/13 02:31:52;;;;;;;37.00;21.10;;;-4.40;99.90;;;;;;5050616;28;20196;-77
2022/01/13 02:34:18;;;;;;;39.53;22.33;;;-4.30;99.90;;;;;;5050266;28;20625;-77
2022/01/13 02:36:46;;;;;;;40.92;22.58;;;-4.40;99.90;;;;;;5050587;28;20715;-77
2022/01/13 02:39:12;;;;;;;39.42;20.40;;;-4.30;99.90;;;;;;5050503;28;20206;-77
2022/01/13 02:41:37;;;;;;;38.50;20.80;;;-4.30;99.90;;;;;;5032449;28;20180;-77
2022/01/13 02:44:11;;;;;;;41.00;20.97;;;-4.30;99.90;;;;;;5032153;28;21077;-76
2022/01/13 02:49:09;;;;;;;36.53;20.90;;;-4.10;99.90;;;;;;5050288;28;20293;-77
2022/01/13 02:51:35;;;;;;;34.75;20.05;;;-4.10;99.90;;;;;;5050193;28;20206;-77
2022/01/13 02:54:02;;;;;;;37.42;20.85;;;-4.10;99.90;;;;;;5050140;28;20199;-77
2022/01/13 02:56:28;;;;;;;37.67;21.17;;;-3.90;99.90;;;;;;5050162;28;20187;-77
2022/01/13 02:58:54;;;;;;;39.93;21.30;;;-3.90;99.90;;;;;;5050100;28;20679;-76
2022/01/13 03:01:19;;;;;;;43.20;20.90;;;-3.80;99.90;;;;;;5032046;28;20430;-77
2022/01/13 03:03:45;;;;;;;39.43;20.47;;;-3.70;99.90;;;;;;5031910;28;20249;-77
2022/01/13 03:06:13;;;;;;;39.38;20.35;;;-3.70;99.90;;;;;;5050159;28;20206;-76
2022/01/13 03:08:43;;;;;;;34.55;19.88;;;-3.70;99.90;;;;;;5015309;28;20188;-77
2022/01/13 03:11:10;;;;;;;36.35;20.38;;;-3.60;99.90;;;;;;5048998;28;20699;-77
2022/01/13 03:13:35;;;;;;;34.03;20.08;;;-3.70;99.90;;;;;;5031805;28;20921;-77
2022/01/13 03:16:09;;;;;;;35.20;20.60;;;-3.70;99.90;;;;;;5031804;28;20179;-76
2022/01/13 03:18:36;;;;;;;36.97;21.95;;;-3.80;99.90;;;;;;5049654;28;20234;-76
2022/01/13 03:21:02;;;;;;;40.78;20.50;;;-3.90;99.90;;;;;;5050446;28;20263;-76
2022/01/13 03:23:28;;;;;;;33.78;19.73;;;-3.90;99.90;;;;;;5049593;28;20257;-76
2022/01/13 03:25:53;;;;;;;33.90;18.80;;;-3.90;99.90;;;;;;5031401;28;20598;-77
2022/01/13 03:28:29;;;;;;;30.83;16.70;;;-3.80;99.90;;;;;;5049618;28;20571;-77
2022/01/13 03:30:56;;;;;;;38.50;21.90;;;-3.80;99.90;;;;;;5049622;28;20155;-76
2022/01/13 03:33:22;;;;;;;39.00;21.63;;;-3.70;99.90;;;;;;5031655;28;20191;-77
2022/01/13 03:35:48;;;;;;;35.37;19.00;;;-3.80;99.90;;;;;;5031341;28;20253;-76
2022/01/13 03:38:13;;;;;;;36.90;20.20;;;-3.90;99.90;;;;;;5049358;28;20199;-77
2022/01/13 03:40:39;;;;;;;31.00;18.80;;;-3.90;99.90;;;;;;5031948;28;20242;-77
2022/01/13 03:43:05;;;;;;;31.60;17.87;;;-3.90;99.90;;;;;;5032081;28;20188;-76
2022/01/13 03:45:32;;;;;;;30.27;17.90;;;-4.00;99.90;;;;;;5049286;28;20207;-77
2022/01/13 03:47:59;;;;;;;31.63;17.60;;;-4.00;99.90;;;;;;5031504;28;20230;-77
2022/01/13 03:50:25;;;;;;;29.23;16.73;;;-4.10;99.90;;;;;;5031039;28;20192;-77
2022/01/13 03:53:02;;;;;;;32.70;17.60;;;-4.10;99.90;;;;;;5049169;28;20644;-78
2022/01/13 03:55:38;;;;;;;33.38;18.45;;;-4.10;99.90;;;;;;5031165;28;20450;-76
2022/01/13 03:58:40;;;;;;;31.67;17.58;;;-4.00;99.90;;;;;;5049502;28;20199;-74
2022/01/13 04:01:54;;;;;;;34.08;19.08;;;-4.00;99.90;;;;;;5049966;28;20175;-74
2022/01/13 04:04:20;;;;;;;37.25;18.88;;;-3.90;99.90;;;;;;5027842;28;20215;-74
2022/01/13 04:06:45;;;;;;;35.20;20.40;;;-3.80;99.90;;;;;;5049866;28;20183;-74
2022/01/13 04:09:32;;;;;;;35.57;19.40;;;-3.80;99.90;;;;;;5050425;28;20194;-74
2022/01/13 04:12:00;;;;;;;35.13;20.02;;;-3.80;99.90;;;;;;5049892;28;20633;-74
2022/01/13 04:14:30;;;;;;;32.88;17.58;;;-3.80;99.90;;;;;;5049401;28;20282;-74
2022/01/13 04:16:56;;;;;;;41.25;19.55;;;-3.80;99.90;;;;;;5049406;28;20219;-74
2022/01/13 04:19:22;;;;;;;35.53;20.23;;;-3.90;99.90;;;;;;5049436;28;20684;-74
2022/01/13 04:21:48;;;;;;;34.97;20.67;;;-4.00;99.90;;;;;;5030793;28;20513;-75
2022/01/13 04:24:14;;;;;;;30.83;17.97;;;-4.10;99.90;;;;;;5049018;28;20935;-74
2022/01/13 04:26:42;;;;;;;31.73;18.63;;;-4.10;99.90;;;;;;5048919;28;20290;-74
2022/01/13 04:31:47;;;;;;;32.40;19.00;;;-4.10;99.90;;;;;;5048653;28;20180;-75
2022/01/13 04:34:14;;;;;;;32.45;18.33;;;-4.10;99.90;;;;;;5048459;28;20281;-73
2022/01/13 04:36:40;;;;;;;26.23;16.30;;;-4.10;99.90;;;;;;5048507;28;20179;-73
2022/01/13 04:39:08;;;;;;;28.52;18.00;;;-4.00;99.90;;;;;;5048412;28;20250;-74
2022/01/13 04:41:37;;;;;;;35.42;19.55;;;-4.20;99.90;;;;;;5048473;28;20180;-76
2022/01/13 04:44:10;;;;;;;32.45;16.85;;;-4.30;99.90;;;;;;5048314;28;20196;-75
2022/01/13 04:46:37;;;;;;;32.75;18.13;;;-4.20;99.90;;;;;;5048315;28;20189;-75
2022/01/13 04:49:04;;;;;;;30.25;18.13;;;-4.30;99.90;;;;;;5048328;28;20290;-76
2022/01/13 04:51:30;;;;;;;26.58;16.50;;;-4.30;99.90;;;;;;5048283;28;20179;-75
2022/01/13 04:53:55;;;;;;;36.88;19.85;;;-4.40;99.90;;;;;;5048275;28;20265;-76
2022/01/13 04:56:31;;;;;;;29.77;17.30;;;-4.40;99.90;;;;;;5048309;28;20183;-76
2022/01/13 04:58:57;;;;;;;28.33;16.90;;;-4.30;99.90;;;;;;5031524;28;20218;-76
2022/01/13 05:01:22;;;;;;;27.92;17.35;;;-4.40;99.90;;;;;;5048158;28;20229;-74
2022/01/13 05:03:48;;;;;;;26.37;16.37;;;-4.40;99.90;;;;;;5029983;28;20208;-76
2022/01/13 05:06:17;;;;;;;31.03;18.10;;;-4.30;99.90;;;;;;5030269;28;20303;-74
2022/01/13 05:08:44;;;;;;;31.17;17.60;;;-4.20;99.90;;;;;;5048156;28;20503;-74
2022/01/13 05:11:09;;;;;;;35.42;17.83;;;-4.30;99.90;;;;;;5030190;28;20183;-74
2022/01/13 05:13:35;;;;;;;28.77;17.53;;;-4.40;99.90;;;;;;5029988;28;20199;-74
2022/01/13 05:16:01;;;;;;;32.07;19.23;;;-4.40;99.90;;;;;;5030045;28;20207;-75
2022/01/13 05:18:45;;;;;;;29.23;17.73;;;-4.40;99.90;;;;;;5047816;28;20735;-74
2022/01/13 05:21:21;;;;;;;32.65;18.23;;;-4.40;99.90;;;;;;5047918;28;20418;-75
2022/01/13 05:23:47;;;;;;;28.35;17.35;;;-4.50;99.90;;;;;;5047801;28;20195;-74
2022/01/13 05:26:12;;;;;;;32.10;16.83;;;-4.50;99.90;;;;;;5029964;28;20195;-75
2022/01/13 05:28:40;;;;;;;31.73;16.80;;;-4.40;99.90;;;;;;5047152;28;20422;-74
2022/01/13 05:31:09;;;;;;;32.72;18.20;;;-4.50;99.90;;;;;;5046515;28;20191;-74
2022/01/13 05:33:35;;;;;;;36.10;18.00;;;-4.40;99.90;;;;;;5046139;28;20196;-74
2022/01/13 05:36:01;;;;;;;39.13;18.67;;;-4.40;99.90;;;;;;5049783;28;20198;-75
2022/01/13 05:38:27;;;;;;;33.00;17.98;;;-4.40;99.90;;;;;;5049990;28;20216;-74
2022/01/13 05:40:53;;;;;;;35.30;17.50;;;-4.40;99.90;;;;;;5031779;28;20179;-74
2022/01/13 05:43:19;;;;;;;31.50;17.90;;;-4.40;99.90;;;;;;5049770;28;20175;-74
2022/01/13 05:45:45;;;;;;;34.03;18.10;;;-4.40;99.90;;;;;;5031820;28;20284;-74
2022/01/13 05:48:11;;;;;;;31.67;17.90;;;-4.50;99.90;;;;;;5049790;28;20418;-74
2022/01/13 05:50:37;;;;;;;34.40;19.47;;;-4.50;99.90;;;;;;5031582;28;20653;-74
2022/01/13 05:53:03;;;;;;;31.27;19.17;;;-4.50;99.90;;;;;;5031881;28;20669;-74
2022/01/13 05:55:29;;;;;;;31.75;18.75;;;-4.40;99.90;;;;;;5049852;28;20204;-74
2022/01/13 05:57:55;;;;;;;36.10;18.67;;;-4.40;99.90;;;;;;5049698;28;20277;-74
2022/01/13 06:00:23;;;;;;;35.83;20.33;;;-4.30;99.90;;;;;;5049702;28;20180;-74
2022/01/13 06:02:49;;;;;;;32.75;18.80;;;-4.40;99.90;;;;;;5031537;28;20184;-74
2022/01/13 06:05:15;;;;;;;38.60;18.38;;;-4.30;99.90;;;;;;5049491;28;20202;-74
2022/01/13 06:07:41;;;;;;;29.00;16.77;;;-4.40;99.90;;;;;;5049479;28;20207;-74
2022/01/13 06:10:10;;;;;;;39.63;18.00;;;-4.50;99.90;;;;;;5049452;28;20350;-74
2022/01/13 06:12:39;;;;;;;29.67;17.42;;;-4.50;99.90;;;;;;5031212;28;20437;-74
2022/01/13 06:15:09;;;;;;;29.77;16.63;;;-4.60;99.90;;;;;;5048906;28;20570;-74
2022/01/13 06:17:36;;;;;;;24.13;15.40;;;-4.60;99.90;;;;;;5031514;28;20212;-74
2022/01/13 06:20:07;;;;;;;29.80;16.90;;;-4.60;99.90;;;;;;5049679;28;20199;-73
2022/01/13 06:22:33;;;;;;;30.95;16.25;;;-4.60;99.90;;;;;;5049284;28;20286;-74
2022/01/13 06:24:58;;;;;;;28.67;17.50;;;-4.60;99.90;;;;;;5048937;28;20237;-73
2022/01/13 06:27:24;;;;;;;32.37;18.63;;;-4.60;99.90;;;;;;5049013;28;20429;-74
2022/01/13 06:29:51;;;;;;;33.60;19.67;;;-4.60;99.90;;;;;;5048961;28;20640;-74
2022/01/13 06:32:18;;;;;;;33.58;17.67;;;-4.60;99.90;;;;;;5030799;28;20187;-73
2022/01/13 06:34:44;;;;;;;35.00;18.52;;;-4.50;99.90;;;;;;5048920;28;20222;-73
2022/01/13 06:37:10;;;;;;;30.63;17.10;;;-4.50;99.90;;;;;;5030552;28;20192;-73
2022/01/13 06:39:35;;;;;;;30.73;17.63;;;-4.40;99.90;;;;;;5030940;28;20709;-73
2022/01/13 06:42:01;;;;;;;36.00;17.90;;;-4.40;99.90;;;;;;5030603;28;20195;-74
2022/01/13 06:44:27;;;;;;;27.00;17.40;;;-4.40;99.90;;;;;;5048605;28;20723;-74
2022/01/13 06:46:52;;;;;;;33.00;19.67;;;-4.50;99.90;;;;;;5030455;28;20198;-74
2022/01/13 06:49:18;;;;;;;33.97;20.07;;;-4.50;99.90;;;;;;5030846;28;20218;-74
2022/01/13 06:51:44;;;;;;;29.47;18.80;;;-4.50;99.90;;;;;;5048661;28;20183;-75
2022/01/13 06:54:09;;;;;;;29.77;18.23;;;-4.50;99.90;;;;;;5048512;28;20203;-74
2022/01/13 06:56:35;;;;;;;32.60;17.90;;;-4.50;99.90;;;;;;5030434;28;20222;-73
2022/01/13 06:59:08;;;;;;;30.00;16.83;;;-4.50;99.90;;;;;;5030141;28;20719;-74
2022/01/13 07:01:34;;;;;;;27.27;16.08;;;-4.60;99.90;;;;;;5031482;28;20184;-75
2022/01/13 07:03:59;;;;;;;26.23;15.27;;;-4.60;99.90;;;;;;5048743;28;20273;-75
2022/01/13 07:06:25;;;;;;;28.23;16.27;;;-4.60;99.90;;;;;;5030235;28;20262;-75
2022/01/13 07:08:51;;;;;;;34.20;18.13;;;-4.60;99.90;;;;;;5048221;28;20192;-75
2022/01/13 07:11:16;;;;;;;31.80;17.87;;;-4.50;99.90;;;;;;5048303;28;20187;-75
2022/01/13 07:13:42;;;;;;;26.50;15.93;;;-4.50;99.90;;;;;;5048601;28;20618;-75
2022/01/13 07:16:08;;;;;;;29.47;16.40;;;-4.50;99.90;;;;;;5048307;28;20187;-75
2022/01/13 07:18:39;;;;;;;27.53;16.07;;;-4.40;99.90;;;;;;5048088;28;20207;-74
2022/01/13 07:21:09;;;;;;;29.85;17.83;;;-4.40;99.90;;;;;;5029988;28;20430;-75
2022/01/13 07:23:35;;;;;;;31.50;18.67;;;-4.30;99.90;;;;;;5047999;28;20198;-75
2022/01/13 07:26:02;;;;;;;32.72;18.52;;;-4.30;99.90;;;;;;5029931;28;20274;-75
2022/01/13 07:28:29;;;;;;;31.23;18.17;;;-4.20;99.90;;;;;;5048438;28;20186;-75
2022/01/13 07:30:56;;;;;;;31.92;17.63;;;-4.20;99.90;;;;;;5048131;28;20184;-75
2022/01/13 07:33:22;;;;;;;32.80;18.02;;;-4.20;99.90;;;;;;5047839;28;20176;-75
2022/01/13 07:35:47;;;;;;;31.27;18.33;;;-4.20;99.90;;;;;;5047707;28;20652;-75
2022/01/13 07:38:13;;;;;;;35.83;19.20;;;-4.20;99.90;;;;;;5047656;28;20503;-74
2022/01/13 07:40:38;;;;;;;34.70;18.90;;;-4.20;99.90;;;;;;5029647;28;20180;-75
2022/01/13 07:43:04;;;;;;;32.77;18.77;;;-4.20;99.90;;;;;;5029517;28;20172;-75
2022/01/13 07:45:30;;;;;;;30.77;18.27;;;-4.20;99.90;;;;;;5029541;28;20303;-75
2022/01/13 07:47:56;;;;;;;32.40;18.87;;;-4.10;99.90;;;;;;5047564;28;20183;-75
2022/01/13 07:50:21;;;;;;;36.63;19.17;;;-4.10;99.90;;;;;;5047557;28;20271;-74
2022/01/13 07:52:47;;;;;;;35.00;19.80;;;-4.00;99.90;;;;;;5047502;28;20186;-74
2022/01/13 07:55:13;;;;;;;39.67;23.30;;;-3.90;99.90;;;;;;5047152;28;20642;-74
2022/01/13 07:57:39;;;;;;;35.88;20.08;;;-3.90;99.90;;;;;;5046572;28;20211;-74
2022/01/13 08:00:08;;;;;;;34.17;19.63;;;-3.90;99.90;;;;;;5047391;28;20255;-75
2022/01/13 08:02:34;;;;;;;32.45;18.08;;;-3.70;99.90;;;;;;5047210;28;20544;-74
2022/01/13 08:04:59;;;;;;;35.47;19.90;;;-3.40;99.90;;;;;;5047168;28;20200;-74
2022/01/13 08:07:25;;;;;;;28.43;16.70;;;-3.00;99.90;;;;;;5047254;28;20746;-74
2022/01/13 08:09:51;;;;;;;27.67;17.13;;;-2.80;99.90;;;;;;5029106;28;20222;-74
2022/01/13 08:12:16;;;;;;;26.10;15.07;;;-2.40;99.90;;;;;;5029051;28;20211;-75
2022/01/13 08:14:42;;;;;;;25.63;16.23;;;-1.90;99.90;;;;;;5046859;28;20243;-74
2022/01/13 08:17:18;;;;;;;22.90;15.70;;;-1.20;99.90;;;;;;5047121;28;20180;-74
2022/01/13 08:19:46;;;;;;;28.73;17.33;;;-0.40;99.90;;;;;;5046959;28;20186;-75
2022/01/13 08:22:16;;;;;;;28.33;16.67;;;0.10;99.90;;;;;;5029304;28;20607;-75
2022/01/13 08:24:43;;;;;;;33.45;20.30;;;0.80;99.90;;;;;;5046759;28;20214;-75
2022/01/13 08:27:09;;;;;;;34.35;21.33;;;1.70;99.90;;;;;;5046723;28;20560;-75
2022/01/13 08:29:35;;;;;;;29.63;18.55;;;2.90;99.90;;;;;;5028965;28;20264;-76
2022/01/13 08:32:01;;;;;;;31.10;19.77;;;3.90;99.90;;;;;;5046783;28;20185;-75
2022/01/13 08:34:27;;;;;;;37.80;26.27;;;4.70;98.40;;;;;;5046517;28;20468;-76
2022/01/13 08:36:53;;;;;;;22.90;18.00;;;5.70;96.00;;;;;;5047184;28;20428;-76
2022/01/13 08:39:18;;;;;;;28.37;21.50;;;6.40;93.40;;;;;;5046639;28;20257;-76
2022/01/13 08:41:45;;;;;;;27.50;19.33;;;7.20;91.00;;;;;;5046692;28;20804;-76
2022/01/13 08:44:11;;;;;;;30.90;22.57;;;7.50;89.10;;;;;;5046687;28;20203;-76
2022/01/13 08:46:37;;;;;;;27.47;19.33;;;7.70;83.70;;;;;;5028732;28;20414;-76
2022/01/13 08:49:03;;;;;;;23.17;19.10;;;7.90;82.70;;;;;;5046592;28;20555;-75
2022/01/13 08:51:29;;;;;;;24.73;19.30;;;8.20;81.80;;;;;;5046482;28;20420;-76
2022/01/13 08:53:55;;;;;;;25.20;18.97;;;8.50;79.50;;;;;;5028571;28;20434;-76
2022/01/13 08:56:21;;;;;;;25.90;21.10;;;8.80;77.80;;;;;;5046840;28;20183;-76
2022/01/13 08:58:47;;;;;;;27.67;20.40;;;9.30;75.60;;;;;;5047001;28;20205;-77
2022/01/13 09:01:13;;;;;;;28.73;20.83;;;9.60;72.20;;;;;;5047160;28;20474;-77
2022/01/13 09:03:39;;;;;;;29.50;21.70;;;9.70;72.40;;;;;;5047184;28;20764;-76
2022/01/13 09:06:05;;;;;;;28.43;20.57;;;9.90;71.00;;;;;;5047071;28;20415;-74
2022/01/13 09:08:30;;;;;;;96.33;58.03;;;10.20;68.60;;;;;;5048451;28;20191;-75
2022/01/13 09:10:57;;;;;;;45.60;30.40;;;10.20;69.20;;;;;;5051387;28;20179;-75
2022/01/13 09:13:23;;;;;;;29.70;23.90;;;10.50;67.00;;;;;;5051460;28;20696;-75
2022/01/13 09:15:59;;;;;;;31.40;25.13;;;10.30;65.00;;;;;;5051570;28;20899;-75
2022/01/13 09:18:33;;;;;;;30.73;24.00;;;9.80;67.30;;;;;;5051187;28;20828;-75
2022/01/13 09:20:59;;;;;;;32.47;23.20;;;8.50;70.50;;;;;;5050912;28;20406;-74
2022/01/13 09:23:25;;;;;;;32.07;23.80;;;7.10;76.60;;;;;;5050355;28;20462;-76
2022/01/13 09:25:50;;;;;;;31.67;23.97;;;6.40;83.30;;;;;;5050374;28;20264;-75
2022/01/13 09:28:16;;;;;;;30.20;23.27;;;5.80;87.40;;;;;;5050712;28;20189;-75
2022/01/13 09:30:42;;;;;;;32.10;23.13;;;5.30;90.20;;;;;;5050224;28;20311;-75
2022/01/13 09:33:08;;;;;;;33.93;23.10;;;4.80;92.00;;;;;;5050474;28;20232;-75
2022/01/13 09:35:34;;;;;;;31.37;23.60;;;4.30;94.00;;;;;;5050509;28;20283;-75
2022/01/13 09:38:01;;;;;;;30.23;21.60;;;4.20;95.20;;;;;;5050020;28;20465;-75
2022/01/13 09:40:27;;;;;;;30.20;21.10;;;4.50;95.20;;;;;;5050079;28;20969;-74
2022/01/13 09:42:54;;;;;;;31.80;21.73;;;5.60;94.20;;;;;;5050216;28;20583;-75
2022/01/13 09:45:21;;;;;;;29.37;19.80;;;7.40;90.60;;;;;;5050655;28;20483;-76
2022/01/13 09:47:48;;;;;;;28.67;21.73;;;8.80;85.30;;;;;;5032878;28;20423;-76
2022/01/13 09:50:18;;;;;;;29.27;20.43;;;10.00;77.10;;;;;;5050909;28;20461;-75
2022/01/13 09:52:45;;;;;;;26.27;21.70;;;11.20;71.30;;;;;;5051068;28;20665;-74
2022/01/13 09:55:12;;;;;;;27.77;22.60;;;12.10;66.60;;;;;;5050667;28;20980;-75
2022/01/13 09:57:47;;;;;;;25.83;21.20;;;12.50;65.10;;;;;;5050659;28;20466;-75
2022/01/13 10:00:15;;;;;;;28.07;21.57;;;13.30;61.00;;;;;;5051107;28;20418;-75
2022/01/13 10:02:41;;;;;;;30.10;23.73;;;14.00;59.10;;;;;;5050751;28;20504;-75
2022/01/13 10:05:08;;;;;;;23.10;20.30;;;14.50;56.90;;;;;;5032731;28;20528;-76
2022/01/13 10:07:43;;;;;;;23.03;19.17;;;15.10;54.70;;;;;;5050702;28;20516;-76
2022/01/13 10:10:15;;;;;;;24.07;19.80;;;15.30;52.50;;;;;;5050673;28;20509;-75
2022/01/13 10:12:48;;;;;;;24.47;20.13;;;15.40;50.50;;;;;;5050711;28;20425;-75
2022/01/13 10:18:05;;;;;;;23.23;20.57;;;16.10;50.50;;;;;;5051201;28;20459;-74
2022/01/13 10:20:32;;;;;;;21.87;19.53;;;16.60;49.80;;;;;;5049897;28;20421;-75
2022/01/13 10:23:12;;;;;;;23.00;20.40;;;16.80;49.40;;;;;;5050625;28;20429;-74
2022/01/13 10:25:39;;;;;;;24.53;21.33;;;17.00;49.20;;;;;;5051062;28;20488;-74
2022/01/13 10:28:23;;;;;;;24.53;20.37;;;17.20;48.10;;;;;;5051012;28;20418;-76
2022/01/13 10:30:51;;;;;;;25.73;19.93;;;17.30;47.80;;;;;;5050943;28;20793;-74
2022/01/13 10:33:21;;;;;;;24.60;21.73;;;17.50;47.70;;;;;;5050892;28;20483;-74
2022/01/13 10:35:49;;;;;;;26.00;21.30;;;17.30;47.50;;;;;;5050934;28;20986;-75
2022/01/13 10:38:17;;;;;;;22.07;19.67;;;16.90;47.10;;;;;;5033468;28;20520;-75
2022/01/13 10:40:47;;;;;;;31.67;23.97;;;17.00;47.60;;;;;;5050765;28;20524;-76
2022/01/13 10:43:15;;;;;;;29.80;25.50;;;17.40;47.00;;;;;;5050737;28;20410;-76
2022/01/13 10:45:44;;;;;;;38.27;28.37;;;16.80;47.50;;;;;;5050482;28;20414;-75
2022/01/13 10:48:30;;;;;;;31.90;25.80;;;16.40;46.90;;;;;;5050561;28;20926;-75
2022/01/13 10:50:55;;;;;;;36.10;25.47;;;15.90;47.80;;;;;;5032335;28;20484;-76
2022/01/13 10:53:30;;;;;;;33.13;21.57;;;16.00;48.60;;;;;;5050415;28;20419;-76
2022/01/13 10:56:09;;;;;;;31.33;24.27;;;15.60;48.40;;;;;;5050265;28;20181;-75
2022/01/13 10:58:38;;;;;;;27.27;22.00;;;15.60;48.30;;;;;;5049987;28;20954;-74
2022/01/13 11:01:05;;;;;;;30.73;23.57;;;15.60;48.80;;;;;;5049697;28;20975;-75
2022/01/13 11:03:34;;;;;;;28.23;21.67;;;15.50;48.50;;;;;;5050044;28;20896;-75
2022/01/13 11:06:06;;;;;;;31.07;23.10;;;15.30;49.00;;;;;;5049631;28;20498;-75
2022/01/13 11:08:41;;;;;;;28.67;21.90;;;15.70;48.80;;;;;;5031665;28;20417;-76
2022/01/13 11:11:26;;;;;;;28.27;20.63;;;15.30;49.10;;;;;;5033050;28;20485;-75
2022/01/13 11:13:59;;;;;;;26.60;21.13;;;15.30;48.80;;;;;;5049589;28;20993;-75
2022/01/13 11:16:26;;;;;;;27.77;20.53;;;15.30;48.70;;;;;;5049642;28;20408;-76
2022/01/13 11:18:52;;;;;;;30.10;19.90;;;15.40;48.00;;;;;;5031385;28;20978;-75
2022/01/13 11:21:19;;;;;;;28.27;20.37;;;15.40;49.10;;;;;;5049094;28;20412;-75
2022/01/13 11:23:48;;;;;;;29.40;21.07;;;15.20;48.60;;;;;;5030932;28;20429;-75
2022/01/13 11:26:15;;;;;;;24.50;19.80;;;15.70;48.60;;;;;;5049778;28;20413;-74
2022/01/13 11:28:42;;;;;;;26.40;19.90;;;15.50;48.00;;;;;;5050299;28;20481;-75
2022/01/13 11:31:09;;;;;;;28.30;20.40;;;15.40;48.10;;;;;;5050313;28;20433;-74
2022/01/13 11:33:36;;;;;;;25.57;19.70;;;15.00;48.00;;;;;;5048567;28;20432;-75
2022/01/13 11:36:03;;;;;;;27.60;19.90;;;14.60;49.40;;;;;;5049251;28;20909;-77
2022/01/13 11:38:30;;;;;;;30.33;19.43;;;14.60;49.60;;;;;;5030913;28;20462;-75
2022/01/13 11:41:05;;;;;;;30.00;21.47;;;14.50;49.70;;;;;;5048980;28;20415;-76
2022/01/13 11:43:38;;;;;;;28.03;19.27;;;14.30;50.70;;;;;;5048840;28;20470;-74
2022/01/13 11:46:21;;;;;;;26.43;20.60;;;14.20;51.30;;;;;;5048672;28;20426;-75
2022/01/13 11:48:54;;;;;;;35.03;22.37;;;14.10;52.00;;;;;;5049051;28;20414;-74
2022/01/13 11:51:21;;;;;;;29.63;22.90;;;14.20;51.50;;;;;;5048813;28;20425;-73
2022/01/13 11:53:56;;;;;;;31.03;21.60;;;13.90;52.10;;;;;;4986067;28;20540;-76
2022/01/13 11:56:23;;;;;;;28.13;21.50;;;13.90;52.30;;;;;;4986291;28;20949;-74
2022/01/13 11:58:50;;;;;;;30.27;22.00;;;13.70;52.40;;;;;;4986080;28;20418;-75
2022/01/13 12:01:23;;;;;;;26.70;20.67;;;13.80;52.70;;;;;;4986023;28;20588;-74
2022/01/13 12:03:51;;;;;;;27.83;21.70;;;13.50;52.70;;;;;;4985871;28;20432;-75
2022/01/13 12:06:44;;;;;;;29.93;21.70;;;13.30;52.10;;;;;;4984322;28;20897;-75
2022/01/13 12:09:33;;;;;;;31.97;23.10;;;12.50;53.60;;;;;;4984543;28;20427;-75
2022/01/13 12:11:59;;;;;;;31.83;21.90;;;12.30;53.80;;;;;;4984697;28;20985;-75
2022/01/13 12:14:25;;;;;;;30.90;21.40;;;12.10;54.90;;;;;;4985325;28;20504;-73
2022/01/13 12:16:57;;;;;;;29.17;21.47;;;12.30;55.80;;;;;;4985131;28;20416;-76
2022/01/13 12:19:37;;;;;;;29.73;22.77;;;12.00;56.20;;;;;;4985218;28;20560;-75
2022/01/13 12:22:23;;;;;;;31.77;20.93;;;11.60;56.60;;;;;;4985124;28;20478;-75
2022/01/13 12:24:53;;;;;;;32.60;20.47;;;10.70;58.30;;;;;;4985033;28;20436;-75
2022/01/13 12:27:22;;;;;;;30.50;22.20;;;10.00;61.90;;;;;;4984931;28;20422;-74
2022/01/13 12:29:51;;;;;;;30.60;22.37;;;9.40;66.80;;;;;;4983783;28;20427;-76
2022/01/13 12:32:38;;;;;;;29.07;21.73;;;9.10;71.00;;;;;;4984959;28;20697;-75
2022/01/13 12:35:15;;;;;;;29.23;21.23;;;8.70;72.90;;;;;;4985057;28;20440;-76
2022/01/13 12:37:41;;;;;;;35.07;21.20;;;8.40;76.90;;;;;;4983257;28;20464;-76
2022/01/13 12:40:14;;;;;;;32.53;21.03;;;8.20;78.90;;;;;;4983581;28;20802;-76
2022/01/13 12:42:53;;;;;;;27.37;21.50;;;8.30;79.70;;;;;;4984853;28;20427;-76
2022/01/13 12:45:28;;;;;;;34.13;21.10;;;8.20;80.20;;;;;;4984347;28;20456;-76
2022/01/13 12:48:00;;;;;;;29.70;21.30;;;8.10;80.30;;;;;;4984808;28;20422;-75
2022/01/13 12:50:30;;;;;;;33.10;20.37;;;7.80;83.10;;;;;;4984307;28;20423;-75
2022/01/13 12:53:08;;;;;;;30.70;21.20;;;7.60;84.70;;;;;;4996169;28;20574;-76
2022/01/13 12:55:35;;;;;;;31.07;21.17;;;7.40;86.20;;;;;;5003703;28;20440;-76
2022/01/13 12:58:01;;;;;;;35.50;21.97;;;7.30;86.90;;;;;;5003757;28;21103;-76
2022/01/13 13:00:27;;;;;;;30.67;21.63;;;7.10;88.20;;;;;;5004433;28;20426;-77